createdAt,value
2018-07-10T00:02:34.559Z,15.60
2018-07-10T00:07:19.009Z,15.50
2018-07-10T00:10:30.908Z,15.40
2018-07-10T00:12:59.829Z,15.40
2018-07-10T00:15:28.663Z,15.30
2018-07-10T00:17:57.501Z,15.30
2018-07-10T00:20:26.325Z,15.30
2018-07-10T00:22:55.292Z,15.30
2018-07-10T00:25:24.097Z,15.30
2018-07-10T00:27:52.916Z,15.30
2018-07-10T00:30:21.752Z,15.30
2018-07-10T00:32:50.569Z,15.30
2018-07-10T00:35:19.379Z,15.30
2018-07-10T00:37:59.760Z,15.30
2018-07-10T00:40:28.573Z,15.30
2018-07-10T00:42:57.375Z,15.30
2018-07-10T00:45:26.185Z,15.30
2018-07-10T00:47:55.000Z,15.30
2018-07-10T00:50:23.813Z,15.30
2018-07-10T00:52:53.153Z,15.30
2018-07-10T00:55:21.948Z,15.30
2018-07-10T00:57:50.812Z,15.30
2018-07-10T01:00:27.400Z,15.30
2018-07-10T01:02:56.400Z,15.30
2018-07-10T01:05:25.220Z,15.20
2018-07-10T01:07:54.173Z,15.20
2018-07-10T01:10:23.025Z,15.20
2018-07-10T01:12:51.844Z,15.10
2018-07-10T01:15:22.048Z,15.10
2018-07-10T01:17:50.860Z,15.10
2018-07-10T01:20:20.410Z,15.10
2018-07-10T01:22:51.694Z,15.00
2018-07-10T01:25:20.958Z,15.00
2018-07-10T01:27:49.749Z,15.10
2018-07-10T01:30:18.555Z,15.10
2018-07-10T01:32:47.357Z,15.00
2018-07-10T01:35:16.169Z,15.00
2018-07-10T01:37:44.963Z,15.00
2018-07-10T01:40:13.765Z,15.00
2018-07-10T01:42:42.567Z,14.90
2018-07-10T01:45:12.179Z,14.80
2018-07-10T01:47:40.969Z,14.80
2018-07-10T01:50:09.781Z,14.80
2018-07-10T01:52:38.578Z,14.80
2018-07-10T01:55:07.402Z,14.70
2018-07-10T01:57:36.210Z,14.80
2018-07-10T02:00:05.029Z,14.80
2018-07-10T02:02:33.829Z,14.90
2018-07-10T02:05:02.825Z,14.90
2018-07-10T02:07:31.626Z,14.90
2018-07-10T02:10:00.435Z,15.00
2018-07-10T02:12:29.230Z,15.00
2018-07-10T02:14:58.099Z,15.00
2018-07-10T02:17:26.850Z,15.00
2018-07-10T02:19:55.657Z,15.00
2018-07-10T02:22:24.462Z,15.00
2018-07-10T02:24:53.309Z,15.00
2018-07-10T02:27:22.082Z,15.00
2018-07-10T02:29:50.885Z,15.00
2018-07-10T02:32:19.707Z,15.00
2018-07-10T02:34:48.518Z,14.90
2018-07-10T02:37:17.314Z,14.90
2018-07-10T02:39:46.422Z,14.80
2018-07-10T02:42:15.260Z,14.80
2018-07-10T02:44:44.095Z,14.70
2018-07-10T02:47:12.904Z,14.70
2018-07-10T02:49:41.800Z,14.60
2018-07-10T02:52:10.613Z,14.60
2018-07-10T02:54:42.240Z,14.60
2018-07-10T02:57:12.072Z,14.60
2018-07-10T02:59:41.442Z,14.60
2018-07-10T03:02:21.593Z,14.60
2018-07-10T03:04:57.303Z,14.50
2018-07-10T03:09:56.063Z,14.50
2018-07-10T03:12:27.105Z,14.50
2018-07-10T03:14:56.398Z,14.40
2018-07-10T03:17:25.215Z,14.40
2018-07-10T03:19:54.109Z,14.30
2018-07-10T03:22:23.561Z,14.30
2018-07-10T03:24:52.366Z,14.20
2018-07-10T03:27:21.295Z,14.30
2018-07-10T03:29:50.338Z,14.30
2018-07-10T03:32:19.442Z,14.30
2018-07-10T03:34:48.246Z,14.30
2018-07-10T03:37:17.125Z,14.30
2018-07-10T03:39:46.547Z,14.40
2018-07-10T03:42:16.674Z,14.40
2018-07-10T03:44:46.055Z,14.30
2018-07-10T03:47:17.003Z,14.30
2018-07-10T03:49:47.191Z,14.20
2018-07-10T03:52:29.463Z,14.20
2018-07-10T03:54:58.469Z,14.10
2018-07-10T03:57:27.353Z,14.10
2018-07-10T03:59:59.737Z,14.10
2018-07-10T04:02:28.547Z,14.00
2018-07-10T04:04:57.377Z,14.00
2018-07-10T04:07:26.323Z,14.00
2018-07-10T04:09:56.015Z,14.30
2018-07-10T04:12:31.255Z,14.60
2018-07-10T04:15:00.158Z,15.00
2018-07-10T04:17:36.618Z,15.50
2018-07-10T04:20:05.418Z,15.90
2018-07-10T04:22:34.232Z,16.30
2018-07-10T04:25:03.236Z,16.70
2018-07-10T04:27:41.218Z,16.90
2018-07-10T04:30:13.870Z,17.20
2018-07-10T04:32:43.003Z,17.60
2018-07-10T04:35:13.226Z,18.00
2018-07-10T04:37:44.624Z,18.40
2018-07-10T04:40:13.426Z,18.70
2018-07-10T04:42:45.922Z,18.70
2018-07-10T04:45:16.850Z,18.90
2018-07-10T04:47:53.844Z,19.20
2018-07-10T04:50:29.806Z,19.30
2018-07-10T04:53:03.957Z,19.10
2018-07-10T04:55:35.099Z,18.70
2018-07-10T04:58:07.313Z,18.60
2018-07-10T05:00:38.246Z,18.50
2018-07-10T05:03:07.058Z,18.40
2018-07-10T05:05:35.847Z,18.70
2018-07-10T05:08:05.715Z,19.10
2018-07-10T05:10:35.476Z,19.60
2018-07-10T05:13:05.851Z,20.20
2018-07-10T05:15:35.155Z,21.20
2018-07-10T05:18:07.528Z,21.90
2018-07-10T05:20:36.819Z,21.80
2018-07-10T05:23:05.701Z,21.70
2018-07-10T05:25:37.395Z,21.30
2018-07-10T05:28:06.199Z,21.20
2018-07-10T05:30:36.118Z,21.10
2018-07-10T05:33:05.267Z,21.00
2018-07-10T05:35:34.162Z,21.20
2018-07-10T05:38:05.525Z,21.40
2018-07-10T05:40:34.359Z,21.10
2018-07-10T05:43:08.603Z,22.90
2018-07-10T05:45:38.763Z,23.40
2018-07-10T05:48:07.990Z,23.60
2018-07-10T05:50:37.919Z,23.00
2018-07-10T05:53:08.708Z,22.60
2018-07-10T05:55:40.640Z,24.90
2018-07-10T05:58:10.114Z,27.20
2018-07-10T06:00:38.918Z,28.20
2018-07-10T06:03:08.225Z,28.20
2018-07-10T06:05:37.047Z,29.20
2018-07-10T06:08:05.841Z,31.00
2018-07-10T06:10:34.787Z,30.80
2018-07-10T06:13:04.594Z,31.80
2018-07-10T06:15:33.411Z,33.00
2018-07-10T06:18:02.211Z,33.70
2018-07-10T06:20:31.067Z,33.70
2018-07-10T06:22:59.952Z,33.20
2018-07-10T06:25:33.038Z,33.50
2018-07-10T06:28:07.122Z,33.60
2018-07-10T06:30:38.022Z,34.20
2018-07-10T06:33:15.043Z,34.90
2018-07-10T06:35:47.673Z,35.40
2018-07-10T06:38:18.529Z,35.40
2018-07-10T06:40:49.129Z,35.60
2018-07-10T06:43:32.995Z,35.50
2018-07-10T06:46:01.880Z,35.50
2018-07-10T06:48:36.216Z,35.70
2018-07-10T06:51:09.909Z,35.90
2018-07-10T06:53:38.724Z,35.80
2018-07-10T06:56:07.494Z,35.80
2018-07-10T06:58:36.294Z,35.30
2018-07-10T07:01:05.278Z,35.10
2018-07-10T07:03:34.067Z,34.60
2018-07-10T07:06:02.916Z,34.40
2018-07-10T07:08:31.719Z,34.10
2018-07-10T07:11:00.535Z,34.00
2018-07-10T07:13:29.326Z,34.00
2018-07-10T07:15:58.148Z,33.90
2018-07-10T07:18:26.937Z,33.90
2018-07-10T07:20:55.746Z,33.20
2018-07-10T07:23:24.545Z,32.90
2018-07-10T07:25:53.363Z,32.00
2018-07-10T07:28:22.168Z,29.40
2018-07-10T07:30:50.982Z,26.40
2018-07-10T07:33:19.785Z,24.60
2018-07-10T07:35:48.577Z,24.60
2018-07-10T07:38:17.382Z,25.30
2018-07-10T07:40:46.245Z,26.00
2018-07-10T07:43:15.346Z,25.70
2018-07-10T07:45:44.123Z,25.30
2018-07-10T07:48:13.053Z,25.30
2018-07-10T07:50:41.882Z,24.40
2018-07-10T07:53:10.714Z,23.60
2018-07-10T07:55:40.023Z,23.10
2018-07-10T07:58:09.166Z,22.60
2018-07-10T08:00:37.962Z,22.20
2018-07-10T08:03:06.766Z,22.00
2018-07-10T08:05:35.588Z,22.60
2018-07-10T08:08:04.394Z,23.70
2018-07-10T08:10:33.191Z,24.00
2018-07-10T08:13:02.018Z,24.10
2018-07-10T08:15:30.773Z,24.30
2018-07-10T08:17:59.583Z,24.10
2018-07-10T08:20:28.366Z,24.00
2018-07-10T08:22:57.173Z,24.10
2018-07-10T08:25:25.965Z,24.40
2018-07-10T08:27:55.503Z,24.60
2018-07-10T08:30:24.297Z,24.60
2018-07-10T08:32:53.108Z,24.90
2018-07-10T08:35:21.889Z,25.00
2018-07-10T08:37:51.343Z,25.10
2018-07-10T08:40:20.143Z,25.10
2018-07-10T08:42:49.301Z,25.00
2018-07-10T08:45:18.347Z,24.80
2018-07-10T08:47:47.344Z,24.60
2018-07-10T08:50:16.383Z,24.10
2018-07-10T08:52:45.196Z,23.90
2018-07-10T08:55:13.997Z,23.80
2018-07-10T08:57:42.804Z,24.40
2018-07-10T09:00:11.613Z,24.60
2018-07-10T09:02:40.774Z,24.80
2018-07-10T09:05:09.572Z,24.70
2018-07-10T09:07:38.384Z,24.60
2018-07-10T09:10:07.182Z,24.20
2018-07-10T09:12:35.974Z,22.90
2018-07-10T09:15:04.791Z,22.10
2018-07-10T09:17:33.598Z,21.60
2018-07-10T09:20:03.778Z,21.20
2018-07-10T09:22:32.624Z,20.90
2018-07-10T09:25:02.298Z,21.00
2018-07-10T09:27:31.104Z,21.20
2018-07-10T09:29:59.887Z,21.50
2018-07-10T09:32:46.198Z,21.70
2018-07-10T09:35:14.992Z,22.00
2018-07-10T09:37:43.852Z,22.40
2018-07-10T09:40:13.843Z,22.60
2018-07-10T09:42:50.246Z,22.50
2018-07-10T09:45:19.045Z,22.50
2018-07-10T09:47:47.845Z,22.40
2018-07-10T09:50:16.639Z,22.30
2018-07-10T09:52:45.441Z,22.10
2018-07-10T09:55:14.259Z,21.90
2018-07-10T09:57:43.350Z,21.70
2018-07-10T10:00:12.146Z,21.50
2018-07-10T10:02:40.943Z,21.10
2018-07-10T10:05:09.747Z,20.90
2018-07-10T10:07:38.565Z,20.80
2018-07-10T10:10:07.373Z,20.80
2018-07-10T10:12:36.186Z,20.80
2018-07-10T10:15:04.987Z,20.70
2018-07-10T10:17:33.989Z,20.70
2018-07-10T10:20:02.792Z,20.80
2018-07-10T10:22:32.450Z,20.70
2018-07-10T10:25:02.804Z,20.70
2018-07-10T10:27:31.693Z,20.40
2018-07-10T10:30:01.781Z,20.40
2018-07-10T10:32:30.873Z,20.50
2018-07-10T10:34:59.871Z,20.90
2018-07-10T10:37:28.679Z,21.30
2018-07-10T10:39:57.755Z,21.70
2018-07-10T10:42:27.108Z,22.20
2018-07-10T10:44:59.147Z,22.50
2018-07-10T10:47:27.962Z,22.80
2018-07-10T10:49:57.306Z,23.00
2018-07-10T10:52:26.107Z,22.70
2018-07-10T10:54:54.929Z,22.70
2018-07-10T10:57:24.298Z,22.90
2018-07-10T10:59:53.165Z,22.90
2018-07-10T11:02:22.338Z,22.60
2018-07-10T11:04:52.590Z,22.50
2018-07-10T11:07:21.711Z,22.40
2018-07-10T11:09:50.726Z,21.90
2018-07-10T11:12:20.093Z,21.50
2018-07-10T11:14:48.899Z,21.50
2018-07-10T11:17:25.083Z,21.70
2018-07-10T11:20:01.564Z,21.80
2018-07-10T11:22:30.389Z,22.00
2018-07-10T11:25:06.030Z,21.90
2018-07-10T11:27:58.854Z,22.00
2018-07-10T11:30:28.127Z,22.30
2018-07-10T11:32:57.098Z,22.70
2018-07-10T11:35:26.059Z,22.70
2018-07-10T11:37:55.789Z,22.70
2018-07-10T11:40:24.594Z,22.60
2018-07-10T11:42:53.377Z,22.60
2018-07-10T11:45:22.194Z,22.60
2018-07-10T11:47:50.995Z,22.40
2018-07-10T11:50:20.142Z,22.20
2018-07-10T11:52:48.922Z,22.10
2018-07-10T11:55:17.729Z,22.00
2018-07-10T11:57:47.527Z,22.10
2018-07-10T12:00:17.012Z,22.00
2018-07-10T12:02:47.422Z,22.00
2018-07-10T12:05:17.972Z,21.80
2018-07-10T12:07:54.983Z,21.80
2018-07-10T12:10:28.143Z,22.00
2018-07-10T12:12:56.934Z,22.10
2018-07-10T12:15:25.811Z,22.20
2018-07-10T12:17:55.622Z,22.30
2018-07-10T12:20:33.034Z,22.30
2018-07-10T12:23:03.052Z,22.20
2018-07-10T12:25:34.269Z,22.20
2018-07-10T12:28:03.700Z,22.20
2018-07-10T12:30:32.713Z,22.30
2018-07-10T12:33:01.604Z,22.20
2018-07-10T12:35:30.397Z,22.30
2018-07-10T12:37:59.600Z,22.40
2018-07-10T12:40:28.530Z,22.60
2018-07-10T12:42:57.346Z,22.80
2018-07-10T12:45:26.162Z,23.00
2018-07-10T12:47:55.112Z,23.20
2018-07-10T12:50:23.914Z,23.20
2018-07-10T12:52:52.749Z,23.20
2018-07-10T12:55:23.414Z,23.20
2018-07-10T12:57:52.206Z,23.00
2018-07-10T13:00:21.397Z,22.90
2018-07-10T13:02:53.138Z,22.70
2018-07-10T13:05:23.702Z,22.50
2018-07-10T13:07:52.776Z,22.50
2018-07-10T13:10:21.615Z,22.50
2018-07-10T13:12:50.402Z,22.70
2018-07-10T13:15:19.201Z,22.60
2018-07-10T13:17:49.815Z,22.40
2018-07-10T13:20:19.063Z,22.30
2018-07-10T13:22:47.874Z,22.20
2018-07-10T13:25:16.673Z,22.10
2018-07-10T13:27:45.472Z,21.90
2018-07-10T13:30:14.290Z,21.70
2018-07-10T13:35:11.579Z,21.60
2018-07-10T13:37:42.451Z,21.80
2018-07-10T13:40:11.318Z,22.20
2018-07-10T13:42:50.963Z,22.30
2018-07-10T13:45:19.894Z,22.50
2018-07-10T13:47:48.688Z,22.50
2018-07-10T13:50:21.461Z,22.40
2018-07-10T13:52:50.572Z,22.30
2018-07-10T13:55:19.389Z,22.40
2018-07-10T13:58:01.399Z,22.40
2018-07-10T14:00:30.737Z,22.40
2018-07-10T14:02:59.539Z,22.40
2018-07-10T14:05:28.360Z,22.30
2018-07-10T14:07:57.171Z,22.10
2018-07-10T14:10:25.974Z,22.00
2018-07-10T14:12:54.840Z,21.90
2018-07-10T14:15:24.059Z,21.70
2018-07-10T14:17:53.413Z,21.50
2018-07-10T14:20:22.318Z,21.20
2018-07-10T14:22:51.350Z,21.00
2018-07-10T14:25:21.042Z,20.70
2018-07-10T14:27:49.845Z,20.60
2018-07-10T14:30:18.695Z,20.60
2018-07-10T14:32:47.518Z,20.60
2018-07-10T14:35:16.322Z,20.80
2018-07-10T14:37:45.126Z,21.00
2018-07-10T14:40:14.114Z,21.20
2018-07-10T14:42:42.926Z,21.60
2018-07-10T14:45:11.731Z,21.70
2018-07-10T14:47:40.568Z,21.70
2018-07-10T14:50:09.410Z,21.60
2018-07-10T14:52:38.239Z,21.50
2018-07-10T14:55:07.210Z,21.50
2018-07-10T14:57:36.018Z,21.60
2018-07-10T15:00:05.213Z,21.70
2018-07-10T15:02:34.975Z,21.70
2018-07-10T15:05:03.818Z,21.60
2018-07-10T15:07:32.622Z,21.60
2018-07-10T15:10:01.402Z,21.70
2018-07-10T15:12:30.218Z,21.80
2018-07-10T15:14:59.168Z,21.60
2018-07-10T15:18:36.118Z,21.70
2018-07-10T15:21:05.198Z,21.80
2018-07-10T15:23:34.020Z,21.80
2018-07-10T15:26:02.803Z,21.50
2018-07-10T15:28:31.718Z,21.40
2018-07-10T15:31:01.482Z,21.50
2018-07-10T15:33:30.280Z,21.60
2018-07-10T15:35:59.070Z,21.40
2018-07-10T15:38:27.880Z,21.30
2018-07-10T15:40:56.670Z,21.20
2018-07-10T15:43:25.779Z,21.30
2018-07-10T15:45:54.657Z,21.30
2018-07-10T15:48:23.496Z,21.30
2018-07-10T15:50:52.310Z,21.50
2018-07-10T15:53:21.198Z,21.50
2018-07-10T15:55:49.997Z,21.20
2018-07-10T15:58:19.216Z,21.00
2018-07-10T16:00:48.017Z,20.90
2018-07-10T16:03:16.837Z,20.60
2018-07-10T16:05:46.046Z,20.40
2018-07-10T16:08:17.286Z,20.30
2018-07-10T16:10:48.086Z,20.30
2018-07-10T16:13:17.241Z,20.00
2018-07-10T16:15:47.033Z,19.80
2018-07-10T16:18:16.019Z,19.70
2018-07-10T16:20:45.013Z,19.50
2018-07-10T16:23:14.271Z,19.40
2018-07-10T16:25:43.616Z,19.20
2018-07-10T16:28:16.006Z,19.00
2018-07-10T16:30:45.301Z,19.00
2018-07-10T16:33:17.966Z,19.00
2018-07-10T16:35:46.774Z,18.90
2018-07-10T16:38:15.561Z,18.90
2018-07-10T16:40:44.371Z,18.80
2018-07-10T16:43:18.723Z,18.70
2018-07-10T16:45:47.534Z,18.60
2018-07-10T16:48:23.079Z,18.40
2018-07-10T16:51:01.371Z,18.30
2018-07-10T16:53:34.263Z,18.20
2018-07-10T16:56:03.166Z,18.10
2018-07-10T16:58:33.594Z,18.20
2018-07-10T17:01:02.985Z,18.10
2018-07-10T17:03:31.786Z,18.00
2018-07-10T17:06:00.801Z,18.10
2018-07-10T17:08:29.609Z,18.10
2018-07-10T17:10:58.406Z,18.10
2018-07-10T17:13:27.259Z,18.10
2018-07-10T17:15:56.067Z,18.00
2018-07-10T17:18:24.875Z,17.90
2018-07-10T17:20:53.670Z,17.90
2018-07-10T17:23:22.494Z,17.90
2018-07-10T17:25:51.386Z,17.90
2018-07-10T17:28:20.387Z,17.80
2018-07-10T17:30:49.326Z,17.90
2018-07-10T17:33:18.123Z,17.80
2018-07-10T17:38:15.663Z,17.60
2018-07-10T17:40:44.694Z,17.60
2018-07-10T17:43:14.248Z,17.50
2018-07-10T17:45:43.129Z,17.60
2018-07-10T17:48:12.092Z,17.60
2018-07-10T17:50:40.898Z,17.60
2018-07-10T17:53:09.700Z,17.60
2018-07-10T17:55:38.515Z,17.50
2018-07-10T17:58:07.342Z,17.40
2018-07-10T18:00:36.473Z,17.40
2018-07-10T18:03:05.350Z,17.20
2018-07-10T18:05:34.148Z,17.00
2018-07-10T18:08:03.930Z,16.90
2018-07-10T18:10:32.726Z,16.80
2018-07-10T18:13:01.625Z,16.70
2018-07-10T18:15:30.524Z,16.80
2018-07-10T18:17:59.400Z,16.70
2018-07-10T18:20:28.362Z,16.70
2018-07-10T18:22:57.363Z,16.60
2018-07-10T18:25:26.017Z,16.50
2018-07-10T18:27:54.810Z,16.40
2018-07-10T18:30:23.751Z,16.40
2018-07-10T18:32:52.553Z,16.40
2018-07-10T18:35:21.426Z,16.30
2018-07-10T18:37:50.325Z,16.40
2018-07-10T18:40:19.226Z,16.30
2018-07-10T18:42:48.111Z,16.30
2018-07-10T18:45:16.917Z,16.30
2018-07-10T18:47:45.766Z,16.30
2018-07-10T18:50:14.661Z,16.30
2018-07-10T18:52:43.459Z,16.30
2018-07-10T18:55:12.264Z,16.30
2018-07-10T18:57:45.938Z,16.20
2018-07-10T19:00:17.421Z,16.20
2018-07-10T19:02:54.105Z,16.10
2018-07-10T19:05:23.088Z,16.10
2018-07-10T19:07:51.954Z,16.00
2018-07-10T19:10:20.855Z,16.00
2018-07-10T19:12:49.742Z,15.90
2018-07-10T19:15:18.600Z,15.90
2018-07-10T19:17:47.531Z,15.80
2018-07-10T19:20:16.334Z,15.80
2018-07-10T19:22:51.650Z,15.70
2018-07-10T19:25:20.677Z,15.60
2018-07-10T19:27:51.922Z,15.60
2018-07-10T19:30:24.741Z,15.50
2018-07-10T19:32:53.477Z,15.40
2018-07-10T19:35:22.741Z,15.40
2018-07-10T19:37:51.644Z,15.30
2018-07-10T19:40:20.514Z,15.30
2018-07-10T19:42:50.168Z,15.20
2018-07-10T19:45:19.574Z,15.20
2018-07-10T19:47:48.367Z,15.20
2018-07-10T19:50:18.780Z,15.20
2018-07-10T19:52:51.913Z,15.10
2018-07-10T19:55:21.966Z,15.10
2018-07-10T19:58:15.093Z,15.00
2018-07-10T20:00:46.291Z,14.90
2018-07-10T20:03:21.914Z,14.80
2018-07-10T20:05:52.007Z,14.70
2018-07-10T20:08:20.824Z,14.60
2018-07-10T20:10:54.142Z,14.50
2018-07-10T20:13:46.798Z,14.40
2018-07-10T20:16:27.018Z,14.30
2018-07-10T20:19:07.570Z,14.20
2018-07-10T20:21:47.818Z,14.10
2018-07-10T20:24:19.341Z,14.10
2018-07-10T20:27:07.590Z,14.10
2018-07-10T20:29:47.654Z,14.10
2018-07-10T20:32:21.292Z,14.10
2018-07-10T20:34:58.475Z,14.10
2018-07-10T20:37:29.181Z,14.10
2018-07-10T20:39:57.982Z,14.10
2018-07-10T20:42:38.785Z,14.10
2018-07-10T20:45:08.800Z,14.10
2018-07-10T20:47:47.950Z,14.10
2018-07-10T20:50:20.875Z,14.10
2018-07-10T20:52:54.781Z,14.10
2018-07-10T20:55:30.036Z,14.20
2018-07-10T20:58:01.698Z,14.20
2018-07-10T21:00:32.402Z,14.30
2018-07-10T21:03:40.228Z,14.30
2018-07-10T21:06:19.598Z,14.30
2018-07-10T21:09:00.462Z,14.40
2018-07-10T21:14:06.802Z,14.40
2018-07-10T21:17:11.575Z,14.40
2018-07-10T21:20:23.904Z,14.50
2018-07-10T21:26:19.886Z,14.50
2018-07-10T21:28:53.564Z,14.50
2018-07-10T21:32:32.985Z,14.50
2018-07-10T21:35:04.481Z,14.50
2018-07-10T21:38:20.236Z,14.40
2018-07-10T21:41:59.965Z,14.40
2018-07-10T21:44:40.681Z,14.40
2018-07-10T21:47:15.448Z,14.30
2018-07-10T21:49:53.120Z,14.20
2018-07-10T21:52:22.086Z,14.10
2018-07-10T21:54:50.900Z,14.10
2018-07-10T21:57:23.709Z,14.10
2018-07-10T21:59:56.098Z,14.10
2018-07-10T22:04:55.819Z,14.20
2018-07-10T22:07:26.499Z,14.30
2018-07-10T22:10:00.211Z,14.30
2018-07-10T22:12:29.026Z,14.30
2018-07-10T22:14:58.034Z,14.30
2018-07-10T22:17:27.461Z,14.40
2018-07-10T22:19:57.667Z,14.40
2018-07-10T22:22:29.763Z,14.40
2018-07-10T22:25:01.649Z,14.40
2018-07-10T22:27:30.486Z,14.40
2018-07-10T22:30:04.762Z,14.40
2018-07-10T22:32:43.223Z,14.40
2018-07-10T22:35:12.540Z,14.40
2018-07-10T22:37:41.334Z,14.40
2018-07-10T22:40:10.360Z,14.50
2018-07-10T22:42:39.405Z,14.50
2018-07-10T22:45:08.218Z,14.40
2018-07-10T22:47:37.901Z,14.50
2018-07-10T22:50:17.659Z,14.50
2018-07-10T22:52:54.957Z,14.50
2018-07-10T22:55:24.872Z,14.60
2018-07-10T22:57:57.645Z,14.60
2018-07-10T23:00:35.038Z,14.60
2018-07-10T23:03:17.326Z,14.60
2018-07-10T23:08:15.135Z,14.60
2018-07-10T23:10:44.129Z,14.60
2018-07-10T23:13:13.013Z,14.60
2018-07-10T23:15:41.585Z,14.60
2018-07-10T23:18:10.134Z,14.60
2018-07-10T23:20:38.702Z,14.60
2018-07-10T23:23:07.259Z,14.60
2018-07-10T23:25:35.823Z,14.60
2018-07-10T23:28:06.110Z,14.60
2018-07-10T23:30:37.434Z,14.60
2018-07-10T23:33:07.788Z,14.60
2018-07-10T23:38:22.026Z,14.60
2018-07-10T23:40:50.640Z,14.60
2018-07-10T23:43:19.226Z,14.60
2018-07-10T23:45:48.397Z,14.60
2018-07-10T23:48:16.939Z,14.60
2018-07-10T23:50:45.633Z,14.50
2018-07-10T23:53:53.039Z,14.50
2018-07-10T23:56:22.078Z,14.50
2018-07-10T23:58:51.275Z,14.50
